sensor_id;sensor_type;location;lat;lon;timestamp;P1;durP1;ratioP1;P2;durP2;ratioP2
9997;SDS011;5038;53.064;8.624;2024-02-28T00:02:23;60.57;;;39.77;;
9997;SDS011;5038;53.064;8.624;2024-02-28T00:04:51;60.73;;;40.30;;
9997;SDS011;5038;53.064;8.624;2024-02-28T00:07:21;53.80;;;38.00;;
9997;SDS011;5038;53.064;8.624;2024-02-28T00:09:49;54.60;;;38.20;;
9997;SDS011;5038;53.064;8.624;2024-02-28T00:12:18;53.87;;;39.17;;
9997;SDS011;5038;53.064;8.624;2024-02-28T00:14:46;57.40;;;39.83;;
9997;SDS011;5038;53.064;8.624;2024-02-28T00:17:15;53.07;;;36.63;;
9997;SDS011;5038;53.064;8.624;2024-02-28T00:19:43;52.53;;;35.67;;
9997;SDS011;5038;53.064;8.624;2024-02-28T00:22:11;52.93;;;37.40;;
9997;SDS011;5038;53.064;8.624;2024-02-28T00:24:41;58.60;;;38.30;;
9997;SDS011;5038;53.064;8.624;2024-02-28T00:27:10;58.23;;;36.80;;
9997;SDS011;5038;53.064;8.624;2024-02-28T00:29:38;59.07;;;38.13;;
9997;SDS011;5038;53.064;8.624;2024-02-28T00:32:07;53.83;;;38.03;;
9997;SDS011;5038;53.064;8.624;2024-02-28T00:34:35;51.70;;;37.80;;
9997;SDS011;5038;53.064;8.624;2024-02-28T00:37:03;51.90;;;35.83;;
9997;SDS011;5038;53.064;8.624;2024-02-28T00:39:33;54.90;;;36.53;;
9997;SDS011;5038;53.064;8.624;2024-02-28T00:42:03;53.90;;;36.70;;
9997;SDS011;5038;53.064;8.624;2024-02-28T00:44:31;61.00;;;38.20;;
9997;SDS011;5038;53.064;8.624;2024-02-28T00:47:00;56.83;;;38.57;;
9997;SDS011;5038;53.064;8.624;2024-02-28T00:49:28;56.83;;;37.47;;
9997;SDS011;5038;53.064;8.624;2024-02-28T00:51:57;56.03;;;36.50;;
9997;SDS011;5038;53.064;8.624;2024-02-28T00:54:25;55.70;;;35.50;;
9997;SDS011;5038;53.064;8.624;2024-02-28T00:56:54;55.67;;;38.30;;
9997;SDS011;5038;53.064;8.624;2024-02-28T00:59:23;56.43;;;35.50;;
9997;SDS011;5038;53.064;8.624;2024-02-28T01:01:52;59.83;;;39.30;;
9997;SDS011;5038;53.064;8.624;2024-02-28T01:04:20;52.47;;;34.90;;
9997;SDS011;5038;53.064;8.624;2024-02-28T01:06:48;55.40;;;35.20;;
9997;SDS011;5038;53.064;8.624;2024-02-28T01:09:17;53.63;;;36.13;;
9997;SDS011;5038;53.064;8.624;2024-02-28T01:11:45;57.10;;;35.93;;
9997;SDS011;5038;53.064;8.624;2024-02-28T01:14:14;54.80;;;37.47;;
9997;SDS011;5038;53.064;8.624;2024-02-28T01:16:43;57.97;;;39.70;;
9997;SDS011;5038;53.064;8.624;2024-02-28T01:19:12;52.93;;;35.43;;
9997;SDS011;5038;53.064;8.624;2024-02-28T01:21:40;55.97;;;37.50;;
9997;SDS011;5038;53.064;8.624;2024-02-28T01:24:09;56.00;;;37.90;;
9997;SDS011;5038;53.064;8.624;2024-02-28T01:26:37;52.97;;;37.13;;
9997;SDS011;5038;53.064;8.624;2024-02-28T01:29:05;58.43;;;36.53;;
9997;SDS011;5038;53.064;8.624;2024-02-28T01:31:34;52.97;;;34.67;;
9997;SDS011;5038;53.064;8.624;2024-02-28T01:34:03;57.97;;;36.07;;
9997;SDS011;5038;53.064;8.624;2024-02-28T01:36:32;55.53;;;36.90;;
9997;SDS011;5038;53.064;8.624;2024-02-28T01:39:00;54.23;;;33.83;;
9997;SDS011;5038;53.064;8.624;2024-02-28T01:41:29;52.93;;;35.20;;
9997;SDS011;5038;53.064;8.624;2024-02-28T01:43:58;58.67;;;36.80;;
9997;SDS011;5038;53.064;8.624;2024-02-28T01:46:26;54.30;;;36.80;;
9997;SDS011;5038;53.064;8.624;2024-02-28T01:48:56;56.30;;;36.10;;
9997;SDS011;5038;53.064;8.624;2024-02-28T01:51:26;58.47;;;35.07;;
9997;SDS011;5038;53.064;8.624;2024-02-28T01:53:55;49.53;;;34.50;;
9997;SDS011;5038;53.064;8.624;2024-02-28T01:56:25;53.80;;;34.30;;
9997;SDS011;5038;53.064;8.624;2024-02-28T01:58:54;55.13;;;35.07;;
9997;SDS011;5038;53.064;8.624;2024-02-28T02:01:25;54.70;;;35.30;;
9997;SDS011;5038;53.064;8.624;2024-02-28T02:03:54;52.67;;;32.87;;
9997;SDS011;5038;53.064;8.624;2024-02-28T02:06:23;53.93;;;32.97;;
9997;SDS011;5038;53.064;8.624;2024-02-28T02:08:52;53.90;;;34.33;;
9997;SDS011;5038;53.064;8.624;2024-02-28T02:11:22;54.47;;;34.47;;
9997;SDS011;5038;53.064;8.624;2024-02-28T02:13:51;56.87;;;35.43;;
9997;SDS011;5038;53.064;8.624;2024-02-28T02:16:21;60.17;;;37.80;;
9997;SDS011;5038;53.064;8.624;2024-02-28T02:18:52;52.57;;;33.90;;
9997;SDS011;5038;53.064;8.624;2024-02-28T02:21:22;56.47;;;36.17;;
9997;SDS011;5038;53.064;8.624;2024-02-28T02:23:53;56.80;;;38.30;;
9997;SDS011;5038;53.064;8.624;2024-02-28T02:26:21;61.77;;;43.87;;
9997;SDS011;5038;53.064;8.624;2024-02-28T02:28:50;69.70;;;42.20;;
9997;SDS011;5038;53.064;8.624;2024-02-28T02:31:18;66.80;;;40.40;;
9997;SDS011;5038;53.064;8.624;2024-02-28T02:33:47;61.90;;;39.70;;
9997;SDS011;5038;53.064;8.624;2024-02-28T02:36:16;62.20;;;40.83;;
9997;SDS011;5038;53.064;8.624;2024-02-28T02:38:44;59.40;;;39.03;;
9997;SDS011;5038;53.064;8.624;2024-02-28T02:41:14;65.93;;;41.80;;
9997;SDS011;5038;53.064;8.624;2024-02-28T02:43:42;62.57;;;39.77;;
9997;SDS011;5038;53.064;8.624;2024-02-28T02:46:11;62.43;;;41.30;;
9997;SDS011;5038;53.064;8.624;2024-02-28T02:48:39;61.13;;;40.67;;
9997;SDS011;5038;53.064;8.624;2024-02-28T02:51:07;57.97;;;38.40;;
9997;SDS011;5038;53.064;8.624;2024-02-28T02:53:36;54.93;;;35.50;;
9997;SDS011;5038;53.064;8.624;2024-02-28T02:56:04;50.37;;;34.70;;
9997;SDS011;5038;53.064;8.624;2024-02-28T02:58:35;50.53;;;34.97;;
9997;SDS011;5038;53.064;8.624;2024-02-28T03:01:03;49.77;;;33.97;;
9997;SDS011;5038;53.064;8.624;2024-02-28T03:03:32;55.57;;;34.33;;
9997;SDS011;5038;53.064;8.624;2024-02-28T03:06:00;51.50;;;35.10;;
9997;SDS011;5038;53.064;8.624;2024-02-28T03:08:29;47.50;;;31.67;;
9997;SDS011;5038;53.064;8.624;2024-02-28T03:10:57;49.90;;;33.60;;
9997;SDS011;5038;53.064;8.624;2024-02-28T03:13:26;48.00;;;31.20;;
9997;SDS011;5038;53.064;8.624;2024-02-28T03:15:56;48.67;;;31.83;;
9997;SDS011;5038;53.064;8.624;2024-02-28T03:18:24;46.20;;;32.53;;
9997;SDS011;5038;53.064;8.624;2024-02-28T03:20:53;47.37;;;31.73;;
9997;SDS011;5038;53.064;8.624;2024-02-28T03:23:21;47.20;;;31.73;;
9997;SDS011;5038;53.064;8.624;2024-02-28T03:25:50;45.60;;;31.33;;
9997;SDS011;5038;53.064;8.624;2024-02-28T03:28:18;45.87;;;31.03;;
9997;SDS011;5038;53.064;8.624;2024-02-28T03:30:46;45.40;;;31.50;;
9997;SDS011;5038;53.064;8.624;2024-02-28T03:33:16;49.37;;;32.97;;
9997;SDS011;5038;53.064;8.624;2024-02-28T03:35:45;41.53;;;30.50;;
9997;SDS011;5038;53.064;8.624;2024-02-28T03:38:13;48.00;;;31.17;;
9997;SDS011;5038;53.064;8.624;2024-02-28T03:40:41;44.47;;;30.77;;
9997;SDS011;5038;53.064;8.624;2024-02-28T03:43:10;54.20;;;32.40;;
9997;SDS011;5038;53.064;8.624;2024-02-28T03:45:39;41.63;;;29.03;;
9997;SDS011;5038;53.064;8.624;2024-02-28T03:48:08;49.93;;;33.47;;
9997;SDS011;5038;53.064;8.624;2024-02-28T03:50:37;48.53;;;31.30;;
9997;SDS011;5038;53.064;8.624;2024-02-28T03:53:06;46.90;;;30.30;;
9997;SDS011;5038;53.064;8.624;2024-02-28T03:55:34;50.60;;;32.60;;
9997;SDS011;5038;53.064;8.624;2024-02-28T03:58:04;48.07;;;31.63;;
9997;SDS011;5038;53.064;8.624;2024-02-28T04:00:35;53.20;;;33.30;;
9997;SDS011;5038;53.064;8.624;2024-02-28T04:03:04;47.43;;;34.30;;
9997;SDS011;5038;53.064;8.624;2024-02-28T04:05:33;46.90;;;30.87;;
9997;SDS011;5038;53.064;8.624;2024-02-28T04:08:03;49.80;;;33.97;;
9997;SDS011;5038;53.064;8.624;2024-02-28T04:10:32;49.00;;;30.97;;
9997;SDS011;5038;53.064;8.624;2024-02-28T04:13:00;47.33;;;30.80;;
9997;SDS011;5038;53.064;8.624;2024-02-28T04:15:30;47.70;;;32.87;;
9997;SDS011;5038;53.064;8.624;2024-02-28T04:17:58;45.83;;;31.07;;
9997;SDS011;5038;53.064;8.624;2024-02-28T04:20:27;52.80;;;33.97;;
9997;SDS011;5038;53.064;8.624;2024-02-28T04:22:55;49.93;;;32.80;;
9997;SDS011;5038;53.064;8.624;2024-02-28T04:25:25;52.03;;;33.47;;
9997;SDS011;5038;53.064;8.624;2024-02-28T04:27:54;47.90;;;32.33;;
9997;SDS011;5038;53.064;8.624;2024-02-28T04:30:23;49.13;;;30.53;;
9997;SDS011;5038;53.064;8.624;2024-02-28T04:32:52;49.13;;;32.20;;
9997;SDS011;5038;53.064;8.624;2024-02-28T04:35:21;55.20;;;33.30;;
9997;SDS011;5038;53.064;8.624;2024-02-28T04:37:50;55.30;;;33.70;;
9997;SDS011;5038;53.064;8.624;2024-02-28T04:40:18;59.23;;;34.60;;
9997;SDS011;5038;53.064;8.624;2024-02-28T04:42:48;55.20;;;33.70;;
9997;SDS011;5038;53.064;8.624;2024-02-28T04:45:16;56.93;;;38.17;;
9997;SDS011;5038;53.064;8.624;2024-02-28T04:47:45;53.30;;;34.60;;
9997;SDS011;5038;53.064;8.624;2024-02-28T04:50:13;51.73;;;32.57;;
9997;SDS011;5038;53.064;8.624;2024-02-28T04:52:42;53.60;;;32.47;;
9997;SDS011;5038;53.064;8.624;2024-02-28T04:55:10;53.60;;;34.00;;
9997;SDS011;5038;53.064;8.624;2024-02-28T04:57:39;56.40;;;36.33;;
9997;SDS011;5038;53.064;8.624;2024-02-28T05:00:09;58.67;;;33.70;;
9997;SDS011;5038;53.064;8.624;2024-02-28T05:02:38;61.83;;;37.10;;
9997;SDS011;5038;53.064;8.624;2024-02-28T05:05:07;71.97;;;39.27;;
9997;SDS011;5038;53.064;8.624;2024-02-28T05:07:35;68.67;;;40.07;;
9997;SDS011;5038;53.064;8.624;2024-02-28T05:10:04;73.40;;;40.90;;
9997;SDS011;5038;53.064;8.624;2024-02-28T05:12:33;75.43;;;39.40;;
9997;SDS011;5038;53.064;8.624;2024-02-28T05:15:02;80.07;;;41.17;;
9997;SDS011;5038;53.064;8.624;2024-02-28T05:17:34;84.60;;;41.70;;
9997;SDS011;5038;53.064;8.624;2024-02-28T05:20:03;79.57;;;41.47;;
9997;SDS011;5038;53.064;8.624;2024-02-28T05:22:32;90.23;;;43.43;;
9997;SDS011;5038;53.064;8.624;2024-02-28T05:25:00;92.77;;;39.30;;
9997;SDS011;5038;53.064;8.624;2024-02-28T05:27:29;92.60;;;41.30;;
9997;SDS011;5038;53.064;8.624;2024-02-28T05:29:57;84.30;;;39.77;;
9997;SDS011;5038;53.064;8.624;2024-02-28T05:32:27;88.40;;;40.67;;
9997;SDS011;5038;53.064;8.624;2024-02-28T05:34:57;81.10;;;42.73;;
9997;SDS011;5038;53.064;8.624;2024-02-28T05:37:26;83.93;;;40.63;;
9997;SDS011;5038;53.064;8.624;2024-02-28T05:39:54;88.83;;;43.80;;
9997;SDS011;5038;53.064;8.624;2024-02-28T05:42:23;94.80;;;43.30;;
9997;SDS011;5038;53.064;8.624;2024-02-28T05:44:51;95.63;;;41.30;;
9997;SDS011;5038;53.064;8.624;2024-02-28T05:47:20;97.87;;;43.50;;
9997;SDS011;5038;53.064;8.624;2024-02-28T05:49:51;93.13;;;41.17;;
9997;SDS011;5038;53.064;8.624;2024-02-28T05:52:24;98.50;;;43.27;;
9997;SDS011;5038;53.064;8.624;2024-02-28T05:54:53;101.37;;;43.50;;
9997;SDS011;5038;53.064;8.624;2024-02-28T05:57:22;101.83;;;43.90;;
9997;SDS011;5038;53.064;8.624;2024-02-28T05:59:51;101.30;;;41.27;;
9997;SDS011;5038;53.064;8.624;2024-02-28T06:02:20;113.60;;;47.50;;
9997;SDS011;5038;53.064;8.624;2024-02-28T06:04:48;107.97;;;43.60;;
9997;SDS011;5038;53.064;8.624;2024-02-28T06:07:17;100.20;;;43.80;;
9997;SDS011;5038;53.064;8.624;2024-02-28T06:09:47;100.83;;;39.87;;
9997;SDS011;5038;53.064;8.624;2024-02-28T06:12:15;86.03;;;37.80;;
9997;SDS011;5038;53.064;8.624;2024-02-28T06:14:44;88.03;;;40.63;;
9997;SDS011;5038;53.064;8.624;2024-02-28T06:17:12;83.47;;;38.57;;
9997;SDS011;5038;53.064;8.624;2024-02-28T06:19:41;86.30;;;39.30;;
9997;SDS011;5038;53.064;8.624;2024-02-28T06:22:09;87.90;;;38.50;;
9997;SDS011;5038;53.064;8.624;2024-02-28T06:24:38;87.83;;;38.63;;
9997;SDS011;5038;53.064;8.624;2024-02-28T06:27:08;76.43;;;38.63;;
9997;SDS011;5038;53.064;8.624;2024-02-28T06:29:39;82.80;;;41.50;;
9997;SDS011;5038;53.064;8.624;2024-02-28T06:32:08;86.90;;;41.33;;
9997;SDS011;5038;53.064;8.624;2024-02-28T06:34:36;77.83;;;36.93;;
9997;SDS011;5038;53.064;8.624;2024-02-28T06:37:05;78.77;;;35.60;;
9997;SDS011;5038;53.064;8.624;2024-02-28T06:39:34;77.00;;;36.30;;
9997;SDS011;5038;53.064;8.624;2024-02-28T06:42:03;73.73;;;35.37;;
9997;SDS011;5038;53.064;8.624;2024-02-28T06:44:34;80.73;;;38.23;;
9997;SDS011;5038;53.064;8.624;2024-02-28T06:47:03;77.57;;;37.30;;
9997;SDS011;5038;53.064;8.624;2024-02-28T06:49:31;74.80;;;37.90;;
9997;SDS011;5038;53.064;8.624;2024-02-28T06:52:00;66.50;;;34.97;;
9997;SDS011;5038;53.064;8.624;2024-02-28T06:54:28;68.33;;;32.80;;
9997;SDS011;5038;53.064;8.624;2024-02-28T06:56:58;56.90;;;33.63;;
9997;SDS011;5038;53.064;8.624;2024-02-28T06:59:26;62.90;;;32.50;;
9997;SDS011;5038;53.064;8.624;2024-02-28T07:01:57;60.60;;;32.93;;
9997;SDS011;5038;53.064;8.624;2024-02-28T07:04:25;52.37;;;28.93;;
9997;SDS011;5038;53.064;8.624;2024-02-28T07:06:54;52.07;;;29.73;;
9997;SDS011;5038;53.064;8.624;2024-02-28T07:09:22;50.97;;;28.77;;
9997;SDS011;5038;53.064;8.624;2024-02-28T07:11:52;52.37;;;28.93;;
9997;SDS011;5038;53.064;8.624;2024-02-28T07:14:21;48.97;;;30.40;;
9997;SDS011;5038;53.064;8.624;2024-02-28T07:16:49;51.97;;;29.40;;
9997;SDS011;5038;53.064;8.624;2024-02-28T07:19:20;47.40;;;28.50;;
9997;SDS011;5038;53.064;8.624;2024-02-28T07:21:48;40.73;;;23.97;;
9997;SDS011;5038;53.064;8.624;2024-02-28T07:24:17;45.00;;;27.77;;
9997;SDS011;5038;53.064;8.624;2024-02-28T07:26:46;40.27;;;25.30;;
9997;SDS011;5038;53.064;8.624;2024-02-28T07:29:15;38.07;;;26.07;;
9997;SDS011;5038;53.064;8.624;2024-02-28T07:31:44;46.17;;;27.10;;
9997;SDS011;5038;53.064;8.624;2024-02-28T07:34:13;40.10;;;26.60;;
9997;SDS011;5038;53.064;8.624;2024-02-28T07:36:43;35.77;;;23.50;;
9997;SDS011;5038;53.064;8.624;2024-02-28T07:39:11;40.90;;;25.50;;
9997;SDS011;5038;53.064;8.624;2024-02-28T07:41:40;33.83;;;23.53;;
9997;SDS011;5038;53.064;8.624;2024-02-28T07:44:09;40.57;;;24.37;;
9997;SDS011;5038;53.064;8.624;2024-02-28T07:46:37;37.23;;;23.60;;
9997;SDS011;5038;53.064;8.624;2024-02-28T07:49:08;34.97;;;24.20;;
9997;SDS011;5038;53.064;8.624;2024-02-28T07:51:37;38.10;;;22.97;;
9997;SDS011;5038;53.064;8.624;2024-02-28T07:54:08;32.33;;;23.93;;
9997;SDS011;5038;53.064;8.624;2024-02-28T07:56:37;37.80;;;24.87;;
9997;SDS011;5038;53.064;8.624;2024-02-28T07:59:05;32.10;;;23.13;;
9997;SDS011;5038;53.064;8.624;2024-02-28T08:01:34;33.80;;;23.90;;
9997;SDS011;5038;53.064;8.624;2024-02-28T08:04:06;34.93;;;25.80;;
9997;SDS011;5038;53.064;8.624;2024-02-28T08:06:35;32.53;;;22.03;;
9997;SDS011;5038;53.064;8.624;2024-02-28T08:09:03;33.00;;;22.20;;
9997;SDS011;5038;53.064;8.624;2024-02-28T08:11:37;30.73;;;21.43;;
9997;SDS011;5038;53.064;8.624;2024-02-28T08:14:05;33.77;;;22.30;;
9997;SDS011;5038;53.064;8.624;2024-02-28T08:16:34;32.80;;;22.13;;
9997;SDS011;5038;53.064;8.624;2024-02-28T08:19:02;31.37;;;20.23;;
9997;SDS011;5038;53.064;8.624;2024-02-28T08:21:31;32.30;;;22.20;;
9997;SDS011;5038;53.064;8.624;2024-02-28T08:23:59;32.10;;;22.07;;
9997;SDS011;5038;53.064;8.624;2024-02-28T08:26:30;33.17;;;23.73;;
9997;SDS011;5038;53.064;8.624;2024-02-28T08:29:00;31.97;;;21.93;;
9997;SDS011;5038;53.064;8.624;2024-02-28T08:31:29;31.97;;;23.90;;
9997;SDS011;5038;53.064;8.624;2024-02-28T08:33:57;33.57;;;21.77;;
9997;SDS011;5038;53.064;8.624;2024-02-28T08:36:26;34.03;;;24.20;;
9997;SDS011;5038;53.064;8.624;2024-02-28T08:38:54;30.93;;;21.37;;
9997;SDS011;5038;53.064;8.624;2024-02-28T08:41:23;32.10;;;22.20;;
9997;SDS011;5038;53.064;8.624;2024-02-28T08:43:51;33.67;;;22.10;;
9997;SDS011;5038;53.064;8.624;2024-02-28T08:46:21;36.93;;;26.00;;
9997;SDS011;5038;53.064;8.624;2024-02-28T08:48:50;35.03;;;26.03;;
9997;SDS011;5038;53.064;8.624;2024-02-28T08:51:18;36.53;;;24.50;;
9997;SDS011;5038;53.064;8.624;2024-02-28T08:53:48;35.50;;;24.50;;
9997;SDS011;5038;53.064;8.624;2024-02-28T08:56:18;33.90;;;24.70;;
9997;SDS011;5038;53.064;8.624;2024-02-28T08:58:47;37.60;;;27.20;;
9997;SDS011;5038;53.064;8.624;2024-02-28T09:01:15;32.13;;;25.60;;
9997;SDS011;5038;53.064;8.624;2024-02-28T09:03:46;33.57;;;25.40;;
9997;SDS011;5038;53.064;8.624;2024-02-28T09:06:14;33.23;;;24.43;;
9997;SDS011;5038;53.064;8.624;2024-02-28T09:08:43;33.67;;;24.73;;
9997;SDS011;5038;53.064;8.624;2024-02-28T09:11:11;30.97;;;22.50;;
9997;SDS011;5038;53.064;8.624;2024-02-28T09:13:40;29.50;;;19.63;;
9997;SDS011;5038;53.064;8.624;2024-02-28T09:16:08;36.17;;;26.43;;
9997;SDS011;5038;53.064;8.624;2024-02-28T09:18:37;35.63;;;24.63;;
9997;SDS011;5038;53.064;8.624;2024-02-28T09:21:09;33.17;;;25.60;;
9997;SDS011;5038;53.064;8.624;2024-02-28T09:23:37;33.13;;;26.10;;
9997;SDS011;5038;53.064;8.624;2024-02-28T09:26:06;32.73;;;26.40;;
9997;SDS011;5038;53.064;8.624;2024-02-28T09:28:34;31.30;;;24.67;;
9997;SDS011;5038;53.064;8.624;2024-02-28T09:31:04;36.67;;;26.40;;
9997;SDS011;5038;53.064;8.624;2024-02-28T09:33:33;33.07;;;23.77;;
9997;SDS011;5038;53.064;8.624;2024-02-28T09:36:02;35.97;;;26.80;;
9997;SDS011;5038;53.064;8.624;2024-02-28T09:38:32;34.00;;;26.00;;
9997;SDS011;5038;53.064;8.624;2024-02-28T09:41:01;35.17;;;25.10;;
9997;SDS011;5038;53.064;8.624;2024-02-28T09:43:30;35.37;;;25.23;;
9997;SDS011;5038;53.064;8.624;2024-02-28T09:46:03;34.00;;;24.43;;
9997;SDS011;5038;53.064;8.624;2024-02-28T09:48:32;34.87;;;25.50;;
9997;SDS011;5038;53.064;8.624;2024-02-28T09:51:01;36.43;;;27.63;;
9997;SDS011;5038;53.064;8.624;2024-02-28T09:53:33;34.10;;;25.50;;
9997;SDS011;5038;53.064;8.624;2024-02-28T09:56:02;35.93;;;25.73;;
9997;SDS011;5038;53.064;8.624;2024-02-28T09:58:31;37.93;;;25.63;;
9997;SDS011;5038;53.064;8.624;2024-02-28T10:00:59;38.60;;;28.40;;
9997;SDS011;5038;53.064;8.624;2024-02-28T10:03:31;39.73;;;30.03;;
9997;SDS011;5038;53.064;8.624;2024-02-28T10:06:00;34.63;;;28.00;;
9997;SDS011;5038;53.064;8.624;2024-02-28T10:08:33;37.83;;;28.70;;
9997;SDS011;5038;53.064;8.624;2024-02-28T10:11:04;38.23;;;27.97;;
9997;SDS011;5038;53.064;8.624;2024-02-28T10:13:33;38.27;;;29.13;;
9997;SDS011;5038;53.064;8.624;2024-02-28T10:16:01;38.10;;;29.60;;
9997;SDS011;5038;53.064;8.624;2024-02-28T10:18:30;42.00;;;29.50;;
9997;SDS011;5038;53.064;8.624;2024-02-28T10:20:59;39.93;;;31.30;;
9997;SDS011;5038;53.064;8.624;2024-02-28T10:23:27;35.33;;;27.73;;
9997;SDS011;5038;53.064;8.624;2024-02-28T10:25:57;44.37;;;31.67;;
9997;SDS011;5038;53.064;8.624;2024-02-28T10:28:29;48.57;;;31.17;;
9997;SDS011;5038;53.064;8.624;2024-02-28T10:30:57;43.77;;;31.27;;
9997;SDS011;5038;53.064;8.624;2024-02-28T10:33:26;43.10;;;32.00;;
9997;SDS011;5038;53.064;8.624;2024-02-28T10:35:56;45.73;;;30.33;;
9997;SDS011;5038;53.064;8.624;2024-02-28T10:38:25;45.10;;;31.40;;
9997;SDS011;5038;53.064;8.624;2024-02-28T10:40:54;50.00;;;32.43;;
9997;SDS011;5038;53.064;8.624;2024-02-28T10:43:25;45.97;;;33.80;;
9997;SDS011;5038;53.064;8.624;2024-02-28T10:45:56;51.80;;;33.00;;
9997;SDS011;5038;53.064;8.624;2024-02-28T10:48:45;46.03;;;33.90;;
9997;SDS011;5038;53.064;8.624;2024-02-28T10:51:16;45.33;;;32.97;;
9997;SDS011;5038;53.064;8.624;2024-02-28T10:53:48;46.47;;;33.33;;
9997;SDS011;5038;53.064;8.624;2024-02-28T10:56:22;48.07;;;32.43;;
9997;SDS011;5038;53.064;8.624;2024-02-28T10:58:52;39.77;;;27.63;;
9997;SDS011;5038;53.064;8.624;2024-02-28T11:01:22;44.57;;;33.50;;
9997;SDS011;5038;53.064;8.624;2024-02-28T11:03:52;46.13;;;36.07;;
9997;SDS011;5038;53.064;8.624;2024-02-28T11:06:22;52.63;;;35.80;;
9997;SDS011;5038;53.064;8.624;2024-02-28T11:08:51;47.33;;;36.33;;
9997;SDS011;5038;53.064;8.624;2024-02-28T11:11:21;48.83;;;35.00;;
9997;SDS011;5038;53.064;8.624;2024-02-28T11:13:55;51.47;;;35.03;;
9997;SDS011;5038;53.064;8.624;2024-02-28T11:16:27;49.10;;;34.17;;
9997;SDS011;5038;53.064;8.624;2024-02-28T11:18:57;47.17;;;35.40;;
9997;SDS011;5038;53.064;8.624;2024-02-28T11:21:26;44.10;;;34.17;;
9997;SDS011;5038;53.064;8.624;2024-02-28T11:23:59;45.87;;;35.50;;
9997;SDS011;5038;53.064;8.624;2024-02-28T11:26:28;44.47;;;33.13;;
9997;SDS011;5038;53.064;8.624;2024-02-28T11:28:58;51.53;;;38.20;;
9997;SDS011;5038;53.064;8.624;2024-02-28T11:31:27;46.47;;;35.77;;
9997;SDS011;5038;53.064;8.624;2024-02-28T11:33:55;45.50;;;34.57;;
9997;SDS011;5038;53.064;8.624;2024-02-28T11:36:24;43.13;;;33.70;;
9997;SDS011;5038;53.064;8.624;2024-02-28T11:38:53;48.50;;;35.47;;
9997;SDS011;5038;53.064;8.624;2024-02-28T11:41:25;49.97;;;35.80;;
9997;SDS011;5038;53.064;8.624;2024-02-28T11:43:54;42.70;;;32.67;;
9997;SDS011;5038;53.064;8.624;2024-02-28T11:46:24;45.90;;;35.33;;
9997;SDS011;5038;53.064;8.624;2024-02-28T11:48:53;41.23;;;33.00;;
9997;SDS011;5038;53.064;8.624;2024-02-28T11:51:22;43.00;;;31.60;;
9997;SDS011;5038;53.064;8.624;2024-02-28T11:53:51;41.47;;;32.60;;
9997;SDS011;5038;53.064;8.624;2024-02-28T11:56:20;41.13;;;32.10;;
9997;SDS011;5038;53.064;8.624;2024-02-28T11:58:49;38.27;;;31.43;;
9997;SDS011;5038;53.064;8.624;2024-02-28T12:01:18;46.43;;;33.47;;
9997;SDS011;5038;53.064;8.624;2024-02-28T12:03:49;45.87;;;35.53;;
9997;SDS011;5038;53.064;8.624;2024-02-28T12:06:19;46.40;;;34.13;;
9997;SDS011;5038;53.064;8.624;2024-02-28T12:08:48;44.83;;;34.00;;
9997;SDS011;5038;53.064;8.624;2024-02-28T12:11:18;43.07;;;33.63;;
9997;SDS011;5038;53.064;8.624;2024-02-28T12:13:54;46.50;;;34.60;;
9997;SDS011;5038;53.064;8.624;2024-02-28T12:16:23;43.50;;;35.50;;
9997;SDS011;5038;53.064;8.624;2024-02-28T12:18:55;46.30;;;34.17;;
9997;SDS011;5038;53.064;8.624;2024-02-28T12:21:24;46.53;;;36.37;;
9997;SDS011;5038;53.064;8.624;2024-02-28T12:23:53;43.20;;;35.43;;
9997;SDS011;5038;53.064;8.624;2024-02-28T12:26:26;39.30;;;34.77;;
9997;SDS011;5038;53.064;8.624;2024-02-28T12:28:55;40.30;;;35.00;;
9997;SDS011;5038;53.064;8.624;2024-02-28T12:31:25;43.50;;;36.07;;
9997;SDS011;5038;53.064;8.624;2024-02-28T12:33:54;39.97;;;32.70;;
9997;SDS011;5038;53.064;8.624;2024-02-28T12:36:27;40.43;;;33.40;;
9997;SDS011;5038;53.064;8.624;2024-02-28T12:38:57;39.87;;;34.60;;
9997;SDS011;5038;53.064;8.624;2024-02-28T12:41:26;42.57;;;36.00;;
9997;SDS011;5038;53.064;8.624;2024-02-28T12:43:55;42.97;;;33.70;;
9997;SDS011;5038;53.064;8.624;2024-02-28T12:46:24;41.77;;;33.73;;
9997;SDS011;5038;53.064;8.624;2024-02-28T12:48:52;39.30;;;32.27;;
9997;SDS011;5038;53.064;8.624;2024-02-28T12:51:37;39.97;;;32.83;;
9997;SDS011;5038;53.064;8.624;2024-02-28T12:54:06;39.03;;;32.20;;
9997;SDS011;5038;53.064;8.624;2024-02-28T12:56:35;40.80;;;33.20;;
9997;SDS011;5038;53.064;8.624;2024-02-28T12:59:05;36.10;;;30.70;;
9997;SDS011;5038;53.064;8.624;2024-02-28T13:01:34;37.13;;;30.20;;
9997;SDS011;5038;53.064;8.624;2024-02-28T13:04:03;40.67;;;31.87;;
9997;SDS011;5038;53.064;8.624;2024-02-28T13:06:32;45.00;;;32.07;;
9997;SDS011;5038;53.064;8.624;2024-02-28T13:09:02;34.87;;;31.07;;
9997;SDS011;5038;53.064;8.624;2024-02-28T13:11:32;38.30;;;31.27;;
9997;SDS011;5038;53.064;8.624;2024-02-28T13:14:01;37.07;;;32.97;;
9997;SDS011;5038;53.064;8.624;2024-02-28T13:16:30;35.97;;;32.10;;
9997;SDS011;5038;53.064;8.624;2024-02-28T13:18:58;40.07;;;32.30;;
9997;SDS011;5038;53.064;8.624;2024-02-28T13:21:27;36.50;;;30.93;;
9997;SDS011;5038;53.064;8.624;2024-02-28T13:23:55;38.60;;;32.17;;
9997;SDS011;5038;53.064;8.624;2024-02-28T13:26:26;37.20;;;31.90;;
9997;SDS011;5038;53.064;8.624;2024-02-28T13:28:56;34.20;;;29.70;;
9997;SDS011;5038;53.064;8.624;2024-02-28T13:31:24;38.43;;;32.80;;
9997;SDS011;5038;53.064;8.624;2024-02-28T13:33:53;38.57;;;30.97;;
9997;SDS011;5038;53.064;8.624;2024-02-28T13:36:22;39.00;;;30.23;;
9997;SDS011;5038;53.064;8.624;2024-02-28T13:38:51;41.93;;;31.70;;
9997;SDS011;5038;53.064;8.624;2024-02-28T13:41:20;37.10;;;32.07;;
9997;SDS011;5038;53.064;8.624;2024-02-28T13:43:50;41.43;;;33.30;;
9997;SDS011;5038;53.064;8.624;2024-02-28T13:46:18;40.57;;;34.37;;
9997;SDS011;5038;53.064;8.624;2024-02-28T13:48:47;38.20;;;32.60;;
9997;SDS011;5038;53.064;8.624;2024-02-28T13:51:16;39.80;;;33.50;;
9997;SDS011;5038;53.064;8.624;2024-02-28T13:53:45;41.00;;;35.50;;
9997;SDS011;5038;53.064;8.624;2024-02-28T13:56:13;41.53;;;34.57;;
9997;SDS011;5038;53.064;8.624;2024-02-28T13:58:42;40.10;;;35.73;;
9997;SDS011;5038;53.064;8.624;2024-02-28T14:01:20;41.47;;;36.33;;
9997;SDS011;5038;53.064;8.624;2024-02-28T14:03:50;39.10;;;34.83;;
9997;SDS011;5038;53.064;8.624;2024-02-28T14:06:18;43.70;;;37.70;;
9997;SDS011;5038;53.064;8.624;2024-02-28T14:08:47;41.00;;;36.23;;
9997;SDS011;5038;53.064;8.624;2024-02-28T14:11:18;37.77;;;33.77;;
9997;SDS011;5038;53.064;8.624;2024-02-28T14:13:46;41.03;;;36.10;;
9997;SDS011;5038;53.064;8.624;2024-02-28T14:16:15;43.60;;;35.80;;
9997;SDS011;5038;53.064;8.624;2024-02-28T14:18:47;38.20;;;34.10;;
9997;SDS011;5038;53.064;8.624;2024-02-28T14:21:16;39.00;;;35.10;;
9997;SDS011;5038;53.064;8.624;2024-02-28T14:23:46;38.10;;;34.03;;
9997;SDS011;5038;53.064;8.624;2024-02-28T14:26:15;38.60;;;34.63;;
9997;SDS011;5038;53.064;8.624;2024-02-28T14:28:43;40.57;;;36.53;;
9997;SDS011;5038;53.064;8.624;2024-02-28T14:31:12;37.20;;;33.27;;
9997;SDS011;5038;53.064;8.624;2024-02-28T14:33:40;39.60;;;35.70;;
9997;SDS011;5038;53.064;8.624;2024-02-28T14:36:11;36.90;;;32.97;;
9997;SDS011;5038;53.064;8.624;2024-02-28T14:38:40;37.20;;;33.60;;
9997;SDS011;5038;53.064;8.624;2024-02-28T14:41:10;40.03;;;35.90;;
9997;SDS011;5038;53.064;8.624;2024-02-28T14:43:39;38.80;;;34.90;;
9997;SDS011;5038;53.064;8.624;2024-02-28T14:46:08;39.50;;;35.40;;
9997;SDS011;5038;53.064;8.624;2024-02-28T14:48:38;39.80;;;35.63;;
9997;SDS011;5038;53.064;8.624;2024-02-28T14:51:07;39.07;;;35.17;;
9997;SDS011;5038;53.064;8.624;2024-02-28T14:53:38;37.47;;;33.70;;
9997;SDS011;5038;53.064;8.624;2024-02-28T14:56:07;39.97;;;35.83;;
9997;SDS011;5038;53.064;8.624;2024-02-28T14:58:36;40.33;;;36.20;;
9997;SDS011;5038;53.064;8.624;2024-02-28T15:01:05;39.60;;;35.80;;